Time;durP1;ratioP1;P1;durP2;ratioP2;P2;SDS_P1;SDS_P2;PMS_P1;PMS_P2;Temp;Humidity;BMP_temperature;BMP_pressure;BME280_temperature;BME280_humidity;BME280_pressure;Samples;Min_cycle;Max_cycle;Signal;HPM_P1;HPM_P2
2023/12/16 00:00:01;;;;;;;33.20;29.63;;;;;;;;;;5001545;28;20446;-84
2023/12/16 00:02:28;;;;;;;33.87;30.73;;;;;;;;;;5000788;28;20459;-85
2023/12/16 00:04:55;;;;;;;32.73;29.73;;;;;;;;;;5002610;28;20934;-83
2023/12/16 00:07:23;;;;;;;34.37;30.97;;;;;;;;;;5015437;28;20481;-84
2023/12/16 00:09:50;;;;;;;31.20;28.00;;;;;;;;;;5001884;28;20485;-84
2023/12/16 00:12:18;;;;;;;32.70;28.13;;;;;;;;;;5000522;28;20438;-83
2023/12/16 00:14:45;;;;;;;30.73;28.03;;;;;;;;;;5012822;28;20453;-84
2023/12/16 00:17:13;;;;;;;31.57;28.43;;;;;;;;;;4998967;28;20466;-83
2023/12/16 00:19:40;;;;;;;31.67;28.97;;;;;;;;;;5000349;28;20529;-83
2023/12/16 00:22:07;;;;;;;30.83;27.63;;;;;;;;;;4998773;28;20437;-84
2023/12/16 00:24:36;;;;;;;28.93;26.23;;;;;;;;;;4999565;28;20419;-82
2023/12/16 00:27:03;;;;;;;30.57;27.70;;;;;;;;;;4999070;28;20512;-83
2023/12/16 00:29:30;;;;;;;31.50;28.73;;;;;;;;;;5000076;28;20441;-84
2023/12/16 00:31:57;;;;;;;31.00;28.50;;;;;;;;;;4998939;28;20836;-85
2023/12/16 00:34:24;;;;;;;30.63;27.97;;;;;;;;;;4999424;28;20442;-82
2023/12/16 00:36:51;;;;;;;29.37;26.47;;;;;;;;;;5003622;28;20480;-84
2023/12/16 00:39:18;;;;;;;30.37;27.23;;;;;;;;;;5011063;28;20526;-82
2023/12/16 00:41:47;;;;;;;28.53;25.83;;;;;;;;;;4999785;28;20456;-82
2023/12/16 00:44:14;;;;;;;28.17;25.37;;;;;;;;;;5000396;28;20536;-83
2023/12/16 00:46:42;;;;;;;30.27;27.40;;;;;;;;;;5012511;28;20468;-82
2023/12/16 00:49:09;;;;;;;30.87;26.00;;;;;;;;;;5004113;28;20449;-83
2023/12/16 00:51:36;;;;;;;30.33;27.43;;;;;;;;;;5003778;28;20504;-83
2023/12/16 00:54:03;;;;;;;29.80;27.40;;;;;;;;;;5019899;28;20459;-82
2023/12/16 00:56:30;;;;;;;28.37;26.00;;;;;;;;;;5002994;28;20461;-82
2023/12/16 00:58:58;;;;;;;26.00;23.73;;;;;;;;;;5022777;28;20435;-84
2023/12/16 01:01:25;;;;;;;27.30;25.13;;;;;;;;;;5024869;28;20436;-84
2023/12/16 01:03:52;;;;;;;25.93;23.47;;;;;;;;;;5024890;28;20559;-83
2023/12/16 01:06:19;;;;;;;25.70;23.80;;;;;;;;;;5024446;28;20464;-82
2023/12/16 01:08:46;;;;;;;23.43;21.50;;;;;;;;;;5012019;28;20464;-83
2023/12/16 01:11:13;;;;;;;24.17;21.60;;;;;;;;;;5017433;28;20550;-84
2023/12/16 01:13:40;;;;;;;23.97;21.43;;;;;;;;;;5008989;28;20475;-84
2023/12/16 01:16:09;;;;;;;23.40;21.50;;;;;;;;;;5014229;28;20939;-83
2023/12/16 01:18:36;;;;;;;21.17;19.83;;;;;;;;;;5024732;28;20518;-84
2023/12/16 01:21:05;;;;;;;22.47;20.50;;;;;;;;;;5024525;28;20464;-84
2023/12/16 01:23:32;;;;;;;21.60;19.47;;;;;;;;;;5025073;28;20456;-84
2023/12/16 01:25:59;;;;;;;23.37;21.50;;;;;;;;;;5025324;28;20968;-84
2023/12/16 01:28:26;;;;;;;22.67;20.87;;;;;;;;;;5024734;28;20506;-84
2023/12/16 01:30:53;;;;;;;25.07;22.63;;;;;;;;;;5024878;28;20455;-84
2023/12/16 01:33:21;;;;;;;21.73;20.27;;;;;;;;;;5021875;28;20460;-83
2023/12/16 01:35:48;;;;;;;21.93;20.40;;;;;;;;;;5005067;28;20433;-84
2023/12/16 01:38:15;;;;;;;23.17;20.97;;;;;;;;;;5004823;28;20462;-84
2023/12/16 01:40:42;;;;;;;21.93;20.20;;;;;;;;;;5003835;28;20441;-83
2023/12/16 01:43:10;;;;;;;21.77;20.17;;;;;;;;;;5013133;28;20427;-84
2023/12/16 01:45:37;;;;;;;26.97;21.23;;;;;;;;;;5024473;28;20441;-84
2023/12/16 01:48:06;;;;;;;21.97;19.97;;;;;;;;;;5007135;28;20420;-83
2023/12/16 01:50:34;;;;;;;20.70;19.27;;;;;;;;;;5003932;28;20432;-82
2023/12/16 01:53:02;;;;;;;22.67;20.87;;;;;;;;;;5003525;28;20485;-82
2023/12/16 01:55:29;;;;;;;24.33;22.17;;;;;;;;;;5009689;28;20512;-84
2023/12/16 01:57:57;;;;;;;20.67;19.07;;;;;;;;;;5023259;28;20435;-84
2023/12/16 02:00:25;;;;;;;22.53;20.03;;;;;;;;;;5023130;28;20415;-84
2023/12/16 02:02:52;;;;;;;21.77;20.00;;;;;;;;;;5021703;28;20431;-82
2023/12/16 02:05:20;;;;;;;21.17;19.77;;;;;;;;;;5022728;28;20444;-83
2023/12/16 02:07:49;;;;;;;21.50;19.90;;;;;;;;;;5003141;28;20444;-83
2023/12/16 02:10:16;;;;;;;24.97;22.57;;;;;;;;;;5001869;28;20492;-84
2023/12/16 02:12:43;;;;;;;24.20;21.17;;;;;;;;;;5002394;28;20907;-83
2023/12/16 02:15:11;;;;;;;21.03;19.43;;;;;;;;;;5002796;28;20457;-83
2023/12/16 02:17:38;;;;;;;21.00;19.33;;;;;;;;;;5002778;28;20451;-83
2023/12/16 02:20:05;;;;;;;22.57;20.87;;;;;;;;;;5002901;28;20508;-82
2023/12/16 02:22:32;;;;;;;21.03;18.90;;;;;;;;;;5002610;28;20471;-83
2023/12/16 02:25:01;;;;;;;20.03;18.47;;;;;;;;;;5002926;28;20512;-82
2023/12/16 02:27:28;;;;;;;20.50;19.10;;;;;;;;;;5002321;28;20520;-84
2023/12/16 02:29:55;;;;;;;21.30;19.57;;;;;;;;;;5002552;28;20446;-84
2023/12/16 02:32:22;;;;;;;21.90;20.07;;;;;;;;;;5001585;28;20463;-81
2023/12/16 02:34:49;;;;;;;20.77;19.40;;;;;;;;;;5002327;28;20576;-83
2023/12/16 02:37:16;;;;;;;20.37;18.77;;;;;;;;;;5002194;28;20854;-83
2023/12/16 02:39:43;;;;;;;22.07;19.93;;;;;;;;;;5002956;28;20437;-82
2023/12/16 02:42:11;;;;;;;22.70;20.67;;;;;;;;;;5001566;28;20946;-82
2023/12/16 02:44:38;;;;;;;24.50;21.27;;;;;;;;;;5002238;28;20468;-82
2023/12/16 02:47:07;;;;;;;21.80;19.73;;;;;;;;;;5001562;28;20473;-83
2023/12/16 02:49:34;;;;;;;21.57;19.90;;;;;;;;;;5001951;28;20833;-83
2023/12/16 02:52:01;;;;;;;22.00;19.90;;;;;;;;;;5001019;28;20485;-83
2023/12/16 02:54:29;;;;;;;22.20;20.30;;;;;;;;;;5002297;28;20441;-83
2023/12/16 02:56:55;;;;;;;22.20;19.97;;;;;;;;;;5002422;28;20485;-82
2023/12/16 02:59:24;;;;;;;22.27;20.40;;;;;;;;;;5001693;28;20888;-82
2023/12/16 03:01:51;;;;;;;23.37;21.23;;;;;;;;;;5001353;28;20449;-82
2023/12/16 03:04:18;;;;;;;22.00;20.07;;;;;;;;;;5002266;28;20432;-82
2023/12/16 03:06:45;;;;;;;21.80;20.20;;;;;;;;;;5002209;28;20509;-84
2023/12/16 03:09:12;;;;;;;23.20;21.00;;;;;;;;;;5002066;28;20442;-83
2023/12/16 03:11:40;;;;;;;24.27;22.20;;;;;;;;;;5001267;28;20589;-83
2023/12/16 03:14:07;;;;;;;20.90;19.50;;;;;;;;;;5001525;28;20455;-84
2023/12/16 03:16:35;;;;;;;22.60;20.63;;;;;;;;;;5001592;28;20532;-83
2023/12/16 03:19:02;;;;;;;22.93;20.63;;;;;;;;;;5001542;28;20461;-84
2023/12/16 03:21:29;;;;;;;22.63;20.70;;;;;;;;;;4999826;28;20449;-83
2023/12/16 03:24:03;;;;;;;21.00;19.63;;;;;;;;;;5001453;28;20486;-82
2023/12/16 03:26:30;;;;;;;22.87;21.03;;;;;;;;;;5001347;28;20460;-83
2023/12/16 03:28:57;;;;;;;22.33;20.30;;;;;;;;;;5002672;28;20446;-86
2023/12/16 03:31:24;;;;;;;24.27;21.87;;;;;;;;;;5003559;28;20765;-84
2023/12/16 03:33:53;;;;;;;21.53;19.63;;;;;;;;;;5003287;28;20516;-84
2023/12/16 03:36:20;;;;;;;21.70;19.73;;;;;;;;;;5000955;28;20833;-84
2023/12/16 03:38:47;;;;;;;22.40;20.43;;;;;;;;;;5000674;28;20453;-83
2023/12/16 03:41:14;;;;;;;22.77;20.40;;;;;;;;;;5001260;28;20449;-84
2023/12/16 03:43:41;;;;;;;22.37;20.30;;;;;;;;;;5012322;28;20518;-84
2023/12/16 03:46:08;;;;;;;22.33;20.33;;;;;;;;;;5021014;28;20542;-84
2023/12/16 03:48:35;;;;;;;21.10;19.70;;;;;;;;;;5020891;28;21144;-84
2023/12/16 03:51:04;;;;;;;22.10;19.90;;;;;;;;;;5020014;28;20437;-84
2023/12/16 03:53:31;;;;;;;22.17;20.27;;;;;;;;;;5020890;28;20452;-83
2023/12/16 03:55:58;;;;;;;20.97;19.13;;;;;;;;;;5021433;28;20447;-84
2023/12/16 03:58:25;;;;;;;21.97;20.37;;;;;;;;;;5020715;28;20544;-83
2023/12/16 04:00:53;;;;;;;21.47;19.73;;;;;;;;;;5020542;28;20929;-84
2023/12/16 04:03:20;;;;;;;22.33;20.30;;;;;;;;;;5020862;28;20426;-83
2023/12/16 04:05:47;;;;;;;22.73;20.30;;;;;;;;;;5019861;28;20460;-83
2023/12/16 04:08:15;;;;;;;22.20;20.30;;;;;;;;;;5020840;28;20441;-83
2023/12/16 04:10:42;;;;;;;22.63;20.83;;;;;;;;;;5020367;28;20411;-84
2023/12/16 04:13:09;;;;;;;22.33;20.23;;;;;;;;;;5020408;28;20462;-84
2023/12/16 04:15:36;;;;;;;23.83;21.40;;;;;;;;;;5020433;28;20465;-82
2023/12/16 04:18:04;;;;;;;20.43;19.10;;;;;;;;;;5020475;28;20459;-84
2023/12/16 04:20:31;;;;;;;22.73;20.77;;;;;;;;;;5019955;28;20430;-84
2023/12/16 04:22:57;;;;;;;22.93;21.20;;;;;;;;;;5019961;28;20489;-84
2023/12/16 04:25:26;;;;;;;22.85;21.08;;;;;;;;;;5020646;28;20433;-83
2023/12/16 04:27:53;;;;;;;22.87;20.97;;;;;;;;;;5020926;28;20245;-84
2023/12/16 04:30:20;;;;;;;22.90;21.10;;;;;;;;;;5020252;28;20457;-84
2023/12/16 04:32:47;;;;;;;22.33;20.40;;;;;;;;;;5022511;28;20485;-83
2023/12/16 04:35:14;;;;;;;24.83;22.23;;;;;;;;;;5024870;28;20470;-83
2023/12/16 04:37:41;;;;;;;21.93;20.10;;;;;;;;;;5020756;28;20500;-84
2023/12/16 04:40:09;;;;;;;22.73;20.67;;;;;;;;;;5006387;28;20508;-84
2023/12/16 04:42:37;;;;;;;22.73;20.80;;;;;;;;;;5021201;28;20485;-83
2023/12/16 04:45:04;;;;;;;23.07;21.03;;;;;;;;;;5024538;28;20445;-85
2023/12/16 04:47:31;;;;;;;23.63;21.40;;;;;;;;;;5008410;28;20908;-84
2023/12/16 04:49:58;;;;;;;22.97;20.87;;;;;;;;;;5003642;28;20501;-85
2023/12/16 04:52:25;;;;;;;22.13;19.93;;;;;;;;;;5004610;28;20975;-85
2023/12/16 04:54:52;;;;;;;23.47;21.17;;;;;;;;;;5013285;28;20464;-84
2023/12/16 04:57:20;;;;;;;22.00;20.17;;;;;;;;;;5015409;28;20844;-84
2023/12/16 04:59:48;;;;;;;22.08;20.35;;;;;;;;;;5004298;28;20964;-84
2023/12/16 05:02:15;;;;;;;23.90;22.00;;;;;;;;;;5005582;28;20210;-84
2023/12/16 05:04:42;;;;;;;20.67;19.13;;;;;;;;;;5018879;28;20431;-85
2023/12/16 05:07:09;;;;;;;23.17;21.10;;;;;;;;;;5012605;28;20481;-85
2023/12/16 05:09:36;;;;;;;22.77;20.80;;;;;;;;;;5019302;28;21035;-85
2023/12/16 05:12:03;;;;;;;23.83;21.50;;;;;;;;;;5021606;28;20477;-84
2023/12/16 05:14:30;;;;;;;24.03;21.90;;;;;;;;;;5005032;28;20446;-84
2023/12/16 05:17:00;;;;;;;22.47;20.90;;;;;;;;;;5004769;28;20436;-83
2023/12/16 05:19:27;;;;;;;22.63;20.73;;;;;;;;;;5008280;28;20478;-84
2023/12/16 05:21:54;;;;;;;20.87;19.23;;;;;;;;;;5009262;28;20492;-82
2023/12/16 05:24:21;;;;;;;24.53;22.23;;;;;;;;;;5005783;28;20503;-84
2023/12/16 05:26:48;;;;;;;21.93;20.23;;;;;;;;;;5008735;28;20530;-81
2023/12/16 05:29:15;;;;;;;21.13;19.43;;;;;;;;;;5020670;28;20448;-82
2023/12/16 05:31:42;;;;;;;23.67;21.40;;;;;;;;;;5020766;28;20434;-84
2023/12/16 05:34:11;;;;;;;22.80;20.70;;;;;;;;;;5021732;28;20899;-81
2023/12/16 05:36:38;;;;;;;22.83;20.87;;;;;;;;;;5021888;28;20597;-82
2023/12/16 05:39:05;;;;;;;21.02;19.15;;;;;;;;;;5021276;28;20434;-82
2023/12/16 05:41:32;;;;;;;22.58;20.85;;;;;;;;;;5008869;28;20226;-83
2023/12/16 05:44:00;;;;;;;22.95;20.85;;;;;;;;;;5008686;28;20210;-82
2023/12/16 05:46:28;;;;;;;22.33;20.63;;;;;;;;;;5019635;28;20221;-82
2023/12/16 05:48:55;;;;;;;24.17;21.80;;;;;;;;;;5021551;28;20461;-83
2023/12/16 05:51:23;;;;;;;24.40;22.10;;;;;;;;;;5018074;28;20420;-83
2023/12/16 05:53:50;;;;;;;23.27;20.98;;;;;;;;;;5014630;28;21019;-83
2023/12/16 05:56:17;;;;;;;23.53;21.03;;;;;;;;;;5012608;28;20233;-83
2023/12/16 05:58:44;;;;;;;21.53;19.23;;;;;;;;;;5001421;28;20477;-83
2023/12/16 06:01:11;;;;;;;23.77;21.37;;;;;;;;;;5006628;28;20970;-82
2023/12/16 06:03:38;;;;;;;22.87;21.23;;;;;;;;;;5022309;28;20456;-84
2023/12/16 06:06:06;;;;;;;22.03;20.10;;;;;;;;;;5005597;28;20448;-84
2023/12/16 06:08:34;;;;;;;22.43;20.93;;;;;;;;;;5023644;28;20486;-83
2023/12/16 06:11:01;;;;;;;27.43;21.40;;;;;;;;;;5006018;28;20445;-85
2023/12/16 06:13:28;;;;;;;24.17;22.20;;;;;;;;;;5003922;28;20485;-84
2023/12/16 06:15:55;;;;;;;24.07;21.90;;;;;;;;;;5004428;28;20527;-85
2023/12/16 06:18:22;;;;;;;21.70;20.17;;;;;;;;;;5003990;28;20473;-84
2023/12/16 06:20:49;;;;;;;24.07;21.80;;;;;;;;;;5006444;28;20476;-84
2023/12/16 06:23:17;;;;;;;22.63;20.90;;;;;;;;;;5008333;28;20501;-84
2023/12/16 06:25:45;;;;;;;21.65;19.85;;;;;;;;;;5006338;28;20447;-84
2023/12/16 06:28:12;;;;;;;21.47;19.40;;;;;;;;;;5005645;28;20214;-83
2023/12/16 06:30:41;;;;;;;22.17;20.20;;;;;;;;;;5002446;28;20457;-84
2023/12/16 06:33:08;;;;;;;22.87;20.93;;;;;;;;;;5002061;28;20925;-85
2023/12/16 06:35:35;;;;;;;22.87;20.37;;;;;;;;;;5010382;28;20496;-84
2023/12/16 06:38:02;;;;;;;21.10;19.83;;;;;;;;;;5001075;28;20469;-83
2023/12/16 06:40:31;;;;;;;21.67;20.20;;;;;;;;;;5012389;28;20444;-84
2023/12/16 06:43:00;;;;;;;22.03;20.30;;;;;;;;;;5021180;28;20942;-84
2023/12/16 06:45:27;;;;;;;22.00;20.00;;;;;;;;;;5021545;28;20456;-83
2023/12/16 06:47:54;;;;;;;20.47;19.03;;;;;;;;;;5016553;28;21082;-83
2023/12/16 06:50:21;;;;;;;21.27;19.63;;;;;;;;;;5020546;28;20460;-83
2023/12/16 06:52:48;;;;;;;21.73;19.77;;;;;;;;;;5018439;28;20484;-83
2023/12/16 06:55:15;;;;;;;23.20;21.40;;;;;;;;;;5020893;28;20456;-82
2023/12/16 06:57:42;;;;;;;23.00;20.60;;;;;;;;;;5020866;28;20282;-83
2023/12/16 07:00:12;;;;;;;21.30;19.57;;;;;;;;;;5006583;28;20539;-84
2023/12/16 07:02:41;;;;;;;21.67;20.00;;;;;;;;;;5001124;28;20477;-83
2023/12/16 07:05:08;;;;;;;25.60;20.93;;;;;;;;;;5014124;28;20487;-84
2023/12/16 07:07:35;;;;;;;22.63;20.67;;;;;;;;;;5015804;28;20479;-83
2023/12/16 07:10:02;;;;;;;22.80;20.70;;;;;;;;;;5006261;28;21296;-85
2023/12/16 07:12:29;;;;;;;21.93;20.53;;;;;;;;;;5016661;28;20553;-83
2023/12/16 07:14:56;;;;;;;21.03;19.60;;;;;;;;;;5006124;28;20441;-84
2023/12/16 07:17:25;;;;;;;22.30;20.27;;;;;;;;;;5012279;28;20486;-84
2023/12/16 07:19:52;;;;;;;22.90;21.10;;;;;;;;;;5002141;28;20469;-83
2023/12/16 07:22:19;;;;;;;20.20;18.87;;;;;;;;;;5000608;28;20813;-84
2023/12/16 07:24:46;;;;;;;20.20;18.90;;;;;;;;;;5001509;28;20453;-84
2023/12/16 07:27:13;;;;;;;22.20;20.20;;;;;;;;;;5005139;28;20504;-85
2023/12/16 07:29:40;;;;;;;21.03;19.60;;;;;;;;;;5002312;28;20477;-84
2023/12/16 07:32:08;;;;;;;20.83;19.33;;;;;;;;;;5001913;28;20480;-84
2023/12/16 07:34:36;;;;;;;22.63;20.53;;;;;;;;;;5002302;28;20473;-84
2023/12/16 07:37:03;;;;;;;29.07;20.00;;;;;;;;;;5002552;28;20531;-84
2023/12/16 07:39:30;;;;;;;21.63;19.70;;;;;;;;;;5001404;28;20513;-85
2023/12/16 07:41:57;;;;;;;21.37;19.47;;;;;;;;;;5001085;28;20484;-85
2023/12/16 07:44:24;;;;;;;21.37;19.63;;;;;;;;;;5014928;28;20428;-86
2023/12/16 07:46:51;;;;;;;28.10;21.30;;;;;;;;;;5021828;28;20500;-83
2023/12/16 07:49:22;;;;;;;21.33;19.30;;;;;;;;;;5021649;28;20509;-85
2023/12/16 07:51:50;;;;;;;25.10;21.00;;;;;;;;;;5021555;28;20437;-85
2023/12/16 07:54:17;;;;;;;21.27;19.87;;;;;;;;;;5021555;28;20488;-85
2023/12/16 07:56:44;;;;;;;22.53;20.77;;;;;;;;;;5021062;28;20488;-84
2023/12/16 07:59:11;;;;;;;22.37;20.50;;;;;;;;;;5021365;28;20460;-85
2023/12/16 08:01:38;;;;;;;26.93;20.30;;;;;;;;;;5020559;28;20492;-85
2023/12/16 08:04:06;;;;;;;22.17;20.20;;;;;;;;;;5020807;28;20485;-85
2023/12/16 08:06:33;;;;;;;25.03;21.33;;;;;;;;;;5014598;28;20749;-79
2023/12/16 08:09:01;;;;;;;23.30;21.17;;;;;;;;;;5012205;28;20444;-79
2023/12/16 08:11:28;;;;;;;21.33;19.83;;;;;;;;;;5011803;28;20505;-77
2023/12/16 08:13:56;;;;;;;22.90;21.13;;;;;;;;;;5016621;28;20860;-85
2023/12/16 08:16:23;;;;;;;24.20;22.17;;;;;;;;;;5000905;28;20861;-84
2023/12/16 08:18:50;;;;;;;22.23;20.67;;;;;;;;;;4997344;28;20503;-77
2023/12/16 08:21:18;;;;;;;23.03;20.83;;;;;;;;;;4991903;28;20495;-81
2023/12/16 08:23:45;;;;;;;23.00;20.63;;;;;;;;;;4992738;28;20520;-78
2023/12/16 08:26:14;;;;;;;22.60;20.67;;;;;;;;;;4991875;28;20464;-77
2023/12/16 08:28:41;;;;;;;20.75;19.27;;;;;;;;;;4992138;28;21133;-79
2023/12/16 08:31:08;;;;;;;21.20;19.27;;;;;;;;;;4991451;28;20269;-78
2023/12/16 08:33:36;;;;;;;23.25;21.05;;;;;;;;;;4992053;28;20641;-78
2023/12/16 08:36:03;;;;;;;24.10;21.60;;;;;;;;;;4998295;28;20252;-78
2023/12/16 08:38:32;;;;;;;23.30;21.10;;;;;;;;;;5011374;28;20452;-79
2023/12/16 08:40:59;;;;;;;21.50;20.07;;;;;;;;;;5011245;28;20259;-78
2023/12/16 08:43:28;;;;;;;20.40;19.30;;;;;;;;;;5011493;28;20445;-78
2023/12/16 08:45:55;;;;;;;21.87;20.20;;;;;;;;;;5011396;28;20475;-79
2023/12/16 08:48:22;;;;;;;22.30;20.30;;;;;;;;;;5011618;28;20447;-79
2023/12/16 08:50:49;;;;;;;21.98;19.70;;;;;;;;;;5010546;28;20987;-79
2023/12/16 08:53:16;;;;;;;21.83;20.30;;;;;;;;;;5011346;28;20689;-78
2023/12/16 08:55:43;;;;;;;20.77;19.33;;;;;;;;;;5011540;28;20423;-78
2023/12/16 08:58:10;;;;;;;21.63;20.00;;;;;;;;;;5011059;28;20507;-79
2023/12/16 09:00:38;;;;;;;23.77;21.97;;;;;;;;;;5009255;28;20522;-78
2023/12/16 09:03:05;;;;;;;22.10;20.40;;;;;;;;;;5011086;28;20441;-78
2023/12/16 09:05:34;;;;;;;23.23;21.33;;;;;;;;;;5011611;28;20480;-78
2023/12/16 09:08:01;;;;;;;21.07;19.43;;;;;;;;;;5011016;28;20444;-79
2023/12/16 09:10:28;;;;;;;22.33;20.30;;;;;;;;;;5010421;28;20949;-79
2023/12/16 09:12:55;;;;;;;21.97;20.47;;;;;;;;;;5011437;28;20440;-78
2023/12/16 09:15:22;;;;;;;28.80;26.17;;;;;;;;;;5010935;28;20981;-78
2023/12/16 09:17:50;;;;;;;23.07;21.20;;;;;;;;;;5012005;28;20558;-78
2023/12/16 09:20:17;;;;;;;22.57;20.60;;;;;;;;;;5015346;28;20415;-79
2023/12/16 09:22:44;;;;;;;21.20;19.87;;;;;;;;;;5015365;28;20510;-78
2023/12/16 09:25:11;;;;;;;20.70;19.27;;;;;;;;;;5015921;28;20944;-79
2023/12/16 09:27:38;;;;;;;22.43;20.57;;;;;;;;;;5023856;28;20552;-78
2023/12/16 09:30:06;;;;;;;21.10;19.50;;;;;;;;;;5016548;28;20457;-77
2023/12/16 09:32:33;;;;;;;28.97;21.30;;;;;;;;;;5006731;28;20206;-77
2023/12/16 09:35:02;;;;;;;22.07;20.37;;;;;;;;;;5002548;28;20539;-77
2023/12/16 09:37:29;;;;;;;21.43;19.83;;;;;;;;;;4998231;28;20463;-79
2023/12/16 09:39:56;;;;;;;21.27;19.33;;;;;;;;;;4996586;28;20487;-79
2023/12/16 09:42:25;;;;;;;24.70;20.20;;;;;;;;;;4994002;28;20445;-78
2023/12/16 09:44:54;;;;;;;21.53;19.93;;;;;;;;;;4994808;28;20445;-79
2023/12/16 09:47:21;;;;;;;20.73;19.00;;;;;;;;;;4994439;28;20477;-77
2023/12/16 09:49:50;;;;;;;21.63;19.70;;;;;;;;;;4994486;28;20463;-78
2023/12/16 09:52:18;;;;;;;22.13;20.53;;;;;;;;;;4994140;28;20882;-79
2023/12/16 09:54:46;;;;;;;21.60;19.80;;;;;;;;;;4994224;28;20485;-78
2023/12/16 09:57:14;;;;;;;21.00;19.43;;;;;;;;;;4994504;28;20826;-78
2023/12/16 09:59:41;;;;;;;21.67;19.90;;;;;;;;;;4994549;28;20453;-78
2023/12/16 10:02:10;;;;;;;22.37;20.50;;;;;;;;;;4993832;28;20428;-78
2023/12/16 10:04:37;;;;;;;22.47;20.20;;;;;;;;;;4994523;28;20500;-77
2023/12/16 10:07:05;;;;;;;23.03;21.17;;;;;;;;;;4993956;28;21052;-78
2023/12/16 10:09:33;;;;;;;21.17;19.60;;;;;;;;;;4994266;28;20453;-79
2023/12/16 10:12:00;;;;;;;22.03;19.70;;;;;;;;;;4994036;28;20485;-78
2023/12/16 10:14:27;;;;;;;20.60;18.93;;;;;;;;;;4994257;28;20464;-77
2023/12/16 10:17:03;;;;;;;19.10;18.10;;;;;;;;;;4993672;28;20469;-77
2023/12/16 10:19:30;;;;;;;21.50;19.77;;;;;;;;;;4993727;28;20435;-78
2023/12/16 10:21:57;;;;;;;22.03;20.33;;;;;;;;;;4993107;28;20938;-77
2023/12/16 10:24:24;;;;;;;22.17;19.97;;;;;;;;;;4993322;28;21265;-79
2023/12/16 10:26:53;;;;;;;20.37;18.90;;;;;;;;;;4993746;28;20461;-77
2023/12/16 10:29:20;;;;;;;22.97;21.17;;;;;;;;;;4993358;28;20450;-77
2023/12/16 10:31:47;;;;;;;22.07;20.27;;;;;;;;;;4993466;28;20454;-78
2023/12/16 10:34:17;;;;;;;19.23;18.03;;;;;;;;;;4993722;28;21068;-77
2023/12/16 10:36:44;;;;;;;21.43;19.73;;;;;;;;;;4993764;28;20477;-78
2023/12/16 10:39:11;;;;;;;22.97;21.20;;;;;;;;;;4993477;28;20457;-77
2023/12/16 10:41:37;;;;;;;20.97;19.30;;;;;;;;;;4993399;28;20488;-78
2023/12/16 10:44:06;;;;;;;22.00;20.10;;;;;;;;;;4993701;28;20457;-78
2023/12/16 10:46:35;;;;;;;19.53;17.77;;;;;;;;;;4993446;28;20510;-78
2023/12/16 10:49:02;;;;;;;22.20;19.70;;;;;;;;;;4993376;28;20445;-77
2023/12/16 10:51:30;;;;;;;21.40;19.20;;;;;;;;;;4992571;28;20437;-77
2023/12/16 10:54:00;;;;;;;20.90;19.30;;;;;;;;;;4993384;28;20496;-76
2023/12/16 10:56:29;;;;;;;19.10;17.80;;;;;;;;;;4993445;28;20469;-79
2023/12/16 10:59:02;;;;;;;21.13;19.30;;;;;;;;;;5005577;28;20476;-77
2023/12/16 11:01:33;;;;;;;19.50;18.03;;;;;;;;;;5012004;28;20975;-78
2023/12/16 11:04:04;;;;;;;21.87;19.70;;;;;;;;;;5012838;28;20486;-77
2023/12/16 11:06:45;;;;;;;21.10;19.30;;;;;;;;;;5010248;28;20535;-77
2023/12/16 11:09:13;;;;;;;20.90;19.10;;;;;;;;;;5013467;28;20458;-77
2023/12/16 11:11:40;;;;;;;32.53;29.40;;;;;;;;;;5012307;28;20452;-77
2023/12/16 11:14:09;;;;;;;22.47;20.20;;;;;;;;;;5012427;28;20492;-77
2023/12/16 11:16:43;;;;;;;54.30;48.60;;;;;;;;;;5012731;28;20485;-77
2023/12/16 11:19:10;;;;;;;21.43;20.00;;;;;;;;;;5012699;28;20889;-77
2023/12/16 11:21:40;;;;;;;20.50;19.00;;;;;;;;;;5011896;28;20449;-77
2023/12/16 11:24:07;;;;;;;21.50;19.57;;;;;;;;;;5013069;28;20433;-76
2023/12/16 11:26:35;;;;;;;21.40;19.57;;;;;;;;;;5012397;28;20880;-78
2023/12/16 11:29:03;;;;;;;20.87;19.03;;;;;;;;;;5012583;28;20812;-78
2023/12/16 11:31:31;;;;;;;22.27;20.10;;;;;;;;;;5012024;28;20467;-79
2023/12/16 11:33:59;;;;;;;22.57;20.57;;;;;;;;;;5012708;28;20487;-78
2023/12/16 11:36:44;;;;;;;21.63;19.67;;;;;;;;;;5012192;28;20491;-78
2023/12/16 11:39:35;;;;;;;21.23;19.40;;;;;;;;;;5002162;28;20464;-78
2023/12/16 11:42:03;;;;;;;22.63;20.93;;;;;;;;;;5010352;28;20435;-78
2023/12/16 11:44:44;;;;;;;24.00;21.80;;;;;;;;;;5013877;28;20448;-79
2023/12/16 11:47:18;;;;;;;27.43;24.67;;;;;;;;;;5012913;28;20472;-80
2023/12/16 11:49:47;;;;;;;29.13;23.40;;;;;;;;;;5013653;28;20437;-78
2023/12/16 11:52:15;;;;;;;22.17;20.77;;;;;;;;;;5013006;28;20965;-79
2023/12/16 11:54:43;;;;;;;63.73;40.43;;;;;;;;;;5013376;28;20488;-80
2023/12/16 11:57:10;;;;;;;21.13;19.73;;;;;;;;;;5013226;28;20474;-79
2023/12/16 11:59:37;;;;;;;22.90;21.20;;;;;;;;;;5013266;28;20859;-79
2023/12/16 12:02:04;;;;;;;22.83;20.50;;;;;;;;;;5012187;28;20437;-79
2023/12/16 12:04:31;;;;;;;26.13;23.60;;;;;;;;;;5013389;28;20522;-78
2023/12/16 12:06:59;;;;;;;22.33;20.17;;;;;;;;;;5012828;28;20503;-78
2023/12/16 12:09:26;;;;;;;22.53;19.00;;;;;;;;;;5013135;28;21297;-79
2023/12/16 12:11:56;;;;;;;20.70;18.23;;;;;;;;;;5012265;28;20455;-77
2023/12/16 12:14:23;;;;;;;20.10;18.57;;;;;;;;;;5012695;28;20530;-79
2023/12/16 12:16:50;;;;;;;19.43;17.83;;;;;;;;;;5012411;28;20943;-78
2023/12/16 12:19:17;;;;;;;19.13;17.90;;;;;;;;;;5012609;28;20466;-79
2023/12/16 12:21:44;;;;;;;20.07;18.53;;;;;;;;;;5012123;28;20433;-78
2023/12/16 12:24:13;;;;;;;22.93;20.73;;;;;;;;;;5013125;28;20436;-79
2023/12/16 12:26:41;;;;;;;20.60;18.63;;;;;;;;;;5012630;28;20472;-78
2023/12/16 12:29:08;;;;;;;20.20;18.70;;;;;;;;;;5012613;28;20452;-79
2023/12/16 12:31:43;;;;;;;21.93;20.13;;;;;;;;;;5012116;28;20464;-78
2023/12/16 12:34:12;;;;;;;21.77;19.90;;;;;;;;;;5012132;28;20482;-78
2023/12/16 12:36:39;;;;;;;22.23;20.23;;;;;;;;;;5011610;28;20583;-78
2023/12/16 12:39:06;;;;;;;21.93;20.13;;;;;;;;;;5012187;28;20921;-79
2023/12/16 12:41:35;;;;;;;21.37;19.20;;;;;;;;;;5011535;28;20515;-78
2023/12/16 12:44:09;;;;;;;19.93;18.10;;;;;;;;;;5012222;28;20485;-79
2023/12/16 12:46:45;;;;;;;31.23;19.67;;;;;;;;;;5011865;28;20496;-78
2023/12/16 12:49:12;;;;;;;21.97;20.23;;;;;;;;;;5012223;28;20919;-75
2023/12/16 12:51:48;;;;;;;21.10;19.40;;;;;;;;;;5010910;28;20571;-77
2023/12/16 12:54:15;;;;;;;23.43;21.03;;;;;;;;;;5014271;28;20487;-77
2023/12/16 12:56:44;;;;;;;21.97;19.70;;;;;;;;;;5015014;28;20526;-78
2023/12/16 12:59:11;;;;;;;20.03;18.60;;;;;;;;;;5015145;28;20440;-78
2023/12/16 13:01:38;;;;;;;21.37;19.27;;;;;;;;;;5014266;28;20503;-76
2023/12/16 13:04:05;;;;;;;20.53;18.97;;;;;;;;;;5014788;28;20499;-77
2023/12/16 13:06:32;;;;;;;18.20;16.90;;;;;;;;;;5015209;28;20477;-76
2023/12/16 13:08:59;;;;;;;20.67;19.03;;;;;;;;;;5015153;28;20448;-79
2023/12/16 13:11:26;;;;;;;28.23;19.33;;;;;;;;;;5014199;28;20502;-77
2023/12/16 13:13:54;;;;;;;21.33;19.50;;;;;;;;;;5014783;28;20947;-78
2023/12/16 13:16:21;;;;;;;23.23;21.23;;;;;;;;;;5014164;28;20523;-76
2023/12/16 13:18:52;;;;;;;20.33;18.57;;;;;;;;;;5014094;28;20941;-77
2023/12/16 13:21:19;;;;;;;21.53;19.80;;;;;;;;;;5014223;28;20431;-78
2023/12/16 13:23:46;;;;;;;19.53;18.40;;;;;;;;;;5014991;28;20459;-78
2023/12/16 13:26:14;;;;;;;20.60;18.60;;;;;;;;;;5014610;28;20909;-78
2023/12/16 13:28:41;;;;;;;21.37;19.40;;;;;;;;;;5014479;28;20929;-78
2023/12/16 13:31:10;;;;;;;21.17;19.70;;;;;;;;;;5001006;28;20815;-76
2023/12/16 13:33:37;;;;;;;21.07;19.70;;;;;;;;;;5013851;28;20464;-77
2023/12/16 13:36:04;;;;;;;25.50;21.60;;;;;;;;;;5013408;28;20473;-78
2023/12/16 13:38:31;;;;;;;25.93;23.60;;;;;;;;;;5014359;28;20499;-77
2023/12/16 13:40:58;;;;;;;24.30;22.10;;;;;;;;;;5001834;28;20559;-76
2023/12/16 13:43:25;;;;;;;23.03;21.07;;;;;;;;;;4994821;28;20567;-78
2023/12/16 13:45:52;;;;;;;21.57;19.63;;;;;;;;;;4994133;28;20492;-78
2023/12/16 13:48:21;;;;;;;21.47;20.07;;;;;;;;;;5003417;28;20460;-76
2023/12/16 13:50:48;;;;;;;30.20;23.90;;;;;;;;;;5012951;28;20562;-77
2023/12/16 13:53:15;;;;;;;22.07;20.13;;;;;;;;;;5013191;28;20495;-79
2023/12/16 13:55:42;;;;;;;20.60;18.77;;;;;;;;;;5013411;28;20480;-77
2023/12/16 13:58:09;;;;;;;20.17;18.53;;;;;;;;;;5002515;28;20461;-78
2023/12/16 14:00:36;;;;;;;22.83;20.83;;;;;;;;;;5002471;28;20456;-82
2023/12/16 14:03:03;;;;;;;22.60;20.60;;;;;;;;;;5003693;28;20485;-81
2023/12/16 14:05:31;;;;;;;22.70;21.13;;;;;;;;;;4998952;28;20449;-82
2023/12/16 14:07:58;;;;;;;23.47;21.70;;;;;;;;;;4996917;28;20494;-78
2023/12/16 14:10:25;;;;;;;18.73;17.73;;;;;;;;;;5006320;28;20990;-83
2023/12/16 14:12:52;;;;;;;19.43;17.97;;;;;;;;;;5009314;28;20452;-82
2023/12/16 14:15:19;;;;;;;23.97;21.80;;;;;;;;;;5018149;28;20472;-85
2023/12/16 14:17:46;;;;;;;20.67;18.83;;;;;;;;;;5023534;28;20465;-85